sensor_id;sensor_type;location;lat;lon;timestamp;P1;durP1;ratioP1;P2;durP2;ratioP2
78072;SDS011;67281;48.770;11.440;2023-06-14T00:00:44;3.07;;;2.77;;
78072;SDS011;67281;48.770;11.440;2023-06-14T00:03:10;5.73;;;2.93;;
78072;SDS011;67281;48.770;11.440;2023-06-14T00:05:38;6.00;;;3.13;;
78072;SDS011;67281;48.770;11.440;2023-06-14T00:08:09;4.67;;;2.80;;
78072;SDS011;67281;48.770;11.440;2023-06-14T00:10:36;3.87;;;3.37;;
78072;SDS011;67281;48.770;11.440;2023-06-14T00:13:04;4.80;;;2.83;;
78072;SDS011;67281;48.770;11.440;2023-06-14T00:15:31;3.47;;;2.83;;
78072;SDS011;67281;48.770;11.440;2023-06-14T00:17:58;4.67;;;3.57;;
78072;SDS011;67281;48.770;11.440;2023-06-14T00:20:28;5.53;;;2.97;;
78072;SDS011;67281;48.770;11.440;2023-06-14T00:22:57;6.10;;;3.33;;
78072;SDS011;67281;48.770;11.440;2023-06-14T00:25:25;5.23;;;3.63;;
78072;SDS011;67281;48.770;11.440;2023-06-14T00:27:55;3.90;;;3.13;;
78072;SDS011;67281;48.770;11.440;2023-06-14T00:30:23;7.73;;;2.77;;
78072;SDS011;67281;48.770;11.440;2023-06-14T00:32:50;3.33;;;2.77;;
78072;SDS011;67281;48.770;11.440;2023-06-14T00:35:18;4.50;;;3.10;;
78072;SDS011;67281;48.770;11.440;2023-06-14T00:37:45;4.07;;;3.20;;
78072;SDS011;67281;48.770;11.440;2023-06-14T00:40:12;6.73;;;3.30;;
78072;SDS011;67281;48.770;11.440;2023-06-14T00:42:39;3.23;;;2.77;;
78072;SDS011;67281;48.770;11.440;2023-06-14T00:45:06;4.43;;;3.17;;
78072;SDS011;67281;48.770;11.440;2023-06-14T00:47:34;4.20;;;2.97;;
78072;SDS011;67281;48.770;11.440;2023-06-14T00:50:06;6.73;;;3.20;;
78072;SDS011;67281;48.770;11.440;2023-06-14T00:52:34;5.43;;;3.10;;
78072;SDS011;67281;48.770;11.440;2023-06-14T00:55:01;9.00;;;2.90;;
78072;SDS011;67281;48.770;11.440;2023-06-14T00:57:28;6.93;;;3.50;;
78072;SDS011;67281;48.770;11.440;2023-06-14T00:59:56;4.20;;;3.20;;
78072;SDS011;67281;48.770;11.440;2023-06-14T01:02:23;3.90;;;3.50;;
78072;SDS011;67281;48.770;11.440;2023-06-14T01:04:50;4.10;;;3.27;;
78072;SDS011;67281;48.770;11.440;2023-06-14T01:10:21;5.73;;;3.27;;
78072;SDS011;67281;48.770;11.440;2023-06-14T01:13:02;3.47;;;3.17;;
78072;SDS011;67281;48.770;11.440;2023-06-14T01:15:35;5.30;;;3.10;;
78072;SDS011;67281;48.770;11.440;2023-06-14T01:18:03;4.60;;;3.73;;
78072;SDS011;67281;48.770;11.440;2023-06-14T01:20:31;3.93;;;3.43;;
78072;SDS011;67281;48.770;11.440;2023-06-14T01:22:59;6.20;;;3.50;;
78072;SDS011;67281;48.770;11.440;2023-06-14T01:25:26;6.53;;;3.37;;
78072;SDS011;67281;48.770;11.440;2023-06-14T01:27:58;4.87;;;3.30;;
78072;SDS011;67281;48.770;11.440;2023-06-14T01:30:28;3.40;;;3.10;;
78072;SDS011;67281;48.770;11.440;2023-06-14T01:32:56;4.13;;;3.43;;
78072;SDS011;67281;48.770;11.440;2023-06-14T01:35:25;4.27;;;3.40;;
78072;SDS011;67281;48.770;11.440;2023-06-14T01:37:52;3.40;;;3.10;;
78072;SDS011;67281;48.770;11.440;2023-06-14T01:40:20;4.70;;;3.17;;
78072;SDS011;67281;48.770;11.440;2023-06-14T01:42:48;4.10;;;2.97;;
78072;SDS011;67281;48.770;11.440;2023-06-14T01:45:16;3.30;;;2.77;;
78072;SDS011;67281;48.770;11.440;2023-06-14T01:47:45;3.67;;;3.23;;
78072;SDS011;67281;48.770;11.440;2023-06-14T01:50:13;5.00;;;3.87;;
78072;SDS011;67281;48.770;11.440;2023-06-14T01:52:40;3.10;;;2.80;;
78072;SDS011;67281;48.770;11.440;2023-06-14T01:55:07;5.83;;;3.43;;
78072;SDS011;67281;48.770;11.440;2023-06-14T01:57:35;3.73;;;3.27;;
78072;SDS011;67281;48.770;11.440;2023-06-14T02:00:03;9.73;;;3.20;;
78072;SDS011;67281;48.770;11.440;2023-06-14T02:02:37;7.87;;;2.97;;
78072;SDS011;67281;48.770;11.440;2023-06-14T02:05:04;4.97;;;3.23;;
78072;SDS011;67281;48.770;11.440;2023-06-14T02:07:31;4.67;;;3.17;;
78072;SDS011;67281;48.770;11.440;2023-06-14T02:09:58;5.20;;;3.30;;
78072;SDS011;67281;48.770;11.440;2023-06-14T02:12:25;4.70;;;3.40;;
78072;SDS011;67281;48.770;11.440;2023-06-14T02:14:52;4.10;;;3.17;;
78072;SDS011;67281;48.770;11.440;2023-06-14T02:17:19;3.53;;;2.77;;
78072;SDS011;67281;48.770;11.440;2023-06-14T02:19:46;5.27;;;3.07;;
78072;SDS011;67281;48.770;11.440;2023-06-14T02:22:12;6.60;;;2.90;;
78072;SDS011;67281;48.770;11.440;2023-06-14T02:24:41;4.57;;;3.60;;
78072;SDS011;67281;48.770;11.440;2023-06-14T02:27:08;4.90;;;3.30;;
78072;SDS011;67281;48.770;11.440;2023-06-14T02:29:36;3.20;;;2.90;;
78072;SDS011;67281;48.770;11.440;2023-06-14T02:32:04;4.53;;;3.80;;
78072;SDS011;67281;48.770;11.440;2023-06-14T02:34:34;3.90;;;3.43;;
78072;SDS011;67281;48.770;11.440;2023-06-14T02:37:01;5.13;;;3.60;;
78072;SDS011;67281;48.770;11.440;2023-06-14T02:39:29;3.40;;;3.10;;
78072;SDS011;67281;48.770;11.440;2023-06-14T02:41:56;4.00;;;3.30;;
78072;SDS011;67281;48.770;11.440;2023-06-14T02:44:26;5.33;;;3.57;;
78072;SDS011;67281;48.770;11.440;2023-06-14T02:46:54;6.67;;;3.30;;
78072;SDS011;67281;48.770;11.440;2023-06-14T02:49:22;6.33;;;3.63;;
78072;SDS011;67281;48.770;11.440;2023-06-14T02:51:49;6.07;;;3.80;;
78072;SDS011;67281;48.770;11.440;2023-06-14T02:54:16;5.23;;;3.40;;
78072;SDS011;67281;48.770;11.440;2023-06-14T02:56:43;5.73;;;3.90;;
78072;SDS011;67281;48.770;11.440;2023-06-14T02:59:10;5.13;;;3.60;;
78072;SDS011;67281;48.770;11.440;2023-06-14T03:01:37;5.33;;;3.23;;
78072;SDS011;67281;48.770;11.440;2023-06-14T03:04:08;3.60;;;3.27;;
78072;SDS011;67281;48.770;11.440;2023-06-14T03:06:35;4.13;;;3.23;;
78072;SDS011;67281;48.770;11.440;2023-06-14T03:09:03;6.53;;;3.70;;
78072;SDS011;67281;48.770;11.440;2023-06-14T03:11:36;6.27;;;3.40;;
78072;SDS011;67281;48.770;11.440;2023-06-14T03:14:03;8.43;;;3.83;;
78072;SDS011;67281;48.770;11.440;2023-06-14T03:16:30;3.70;;;3.30;;
78072;SDS011;67281;48.770;11.440;2023-06-14T03:18:58;4.87;;;3.83;;
78072;SDS011;67281;48.770;11.440;2023-06-14T03:21:25;6.77;;;4.13;;
78072;SDS011;67281;48.770;11.440;2023-06-14T03:23:52;3.97;;;3.53;;
78072;SDS011;67281;48.770;11.440;2023-06-14T03:26:19;4.40;;;3.80;;
78072;SDS011;67281;48.770;11.440;2023-06-14T03:28:46;4.47;;;3.97;;
78072;SDS011;67281;48.770;11.440;2023-06-14T03:31:14;5.37;;;4.07;;
78072;SDS011;67281;48.770;11.440;2023-06-14T03:33:42;4.23;;;3.57;;
78072;SDS011;67281;48.770;11.440;2023-06-14T03:36:09;7.67;;;3.87;;
78072;SDS011;67281;48.770;11.440;2023-06-14T03:38:36;4.40;;;3.50;;
78072;SDS011;67281;48.770;11.440;2023-06-14T03:41:03;6.27;;;3.87;;
78072;SDS011;67281;48.770;11.440;2023-06-14T03:43:30;3.90;;;3.50;;
78072;SDS011;67281;48.770;11.440;2023-06-14T03:45:57;4.80;;;3.77;;
78072;SDS011;67281;48.770;11.440;2023-06-14T03:48:23;6.27;;;3.77;;
78072;SDS011;67281;48.770;11.440;2023-06-14T03:50:50;6.53;;;3.50;;
78072;SDS011;67281;48.770;11.440;2023-06-14T03:53:17;5.40;;;3.47;;
78072;SDS011;67281;48.770;11.440;2023-06-14T03:55:46;5.23;;;3.80;;
78072;SDS011;67281;48.770;11.440;2023-06-14T03:58:18;5.53;;;3.80;;
78072;SDS011;67281;48.770;11.440;2023-06-14T04:00:45;3.43;;;3.07;;
78072;SDS011;67281;48.770;11.440;2023-06-14T04:03:12;9.10;;;3.93;;
78072;SDS011;67281;48.770;11.440;2023-06-14T04:05:42;6.37;;;3.43;;
78072;SDS011;67281;48.770;11.440;2023-06-14T04:08:09;4.77;;;3.37;;
78072;SDS011;67281;48.770;11.440;2023-06-14T04:10:36;7.43;;;3.80;;
78072;SDS011;67281;48.770;11.440;2023-06-14T04:13:03;4.97;;;3.20;;
78072;SDS011;67281;48.770;11.440;2023-06-14T04:15:31;6.90;;;3.53;;
78072;SDS011;67281;48.770;11.440;2023-06-14T04:17:57;4.10;;;3.67;;
78072;SDS011;67281;48.770;11.440;2023-06-14T04:20:25;3.57;;;3.23;;
78072;SDS011;67281;48.770;11.440;2023-06-14T04:22:51;5.57;;;3.50;;
78072;SDS011;67281;48.770;11.440;2023-06-14T04:25:19;4.83;;;3.87;;
78072;SDS011;67281;48.770;11.440;2023-06-14T04:27:49;5.13;;;3.40;;
78072;SDS011;67281;48.770;11.440;2023-06-14T04:30:20;5.13;;;3.43;;
78072;SDS011;67281;48.770;11.440;2023-06-14T04:32:47;5.33;;;4.17;;
78072;SDS011;67281;48.770;11.440;2023-06-14T04:35:16;8.27;;;3.33;;
78072;SDS011;67281;48.770;11.440;2023-06-14T04:37:44;3.87;;;3.40;;
78072;SDS011;67281;48.770;11.440;2023-06-14T04:40:11;6.60;;;3.27;;
78072;SDS011;67281;48.770;11.440;2023-06-14T04:42:39;5.47;;;3.67;;
78072;SDS011;67281;48.770;11.440;2023-06-14T04:45:07;5.97;;;4.17;;
78072;SDS011;67281;48.770;11.440;2023-06-14T04:47:35;3.63;;;2.70;;
78072;SDS011;67281;48.770;11.440;2023-06-14T04:50:04;4.27;;;3.60;;
78072;SDS011;67281;48.770;11.440;2023-06-14T04:52:31;3.90;;;3.50;;
78072;SDS011;67281;48.770;11.440;2023-06-14T04:54:59;5.27;;;3.87;;
78072;SDS011;67281;48.770;11.440;2023-06-14T04:57:26;5.13;;;3.43;;
78072;SDS011;67281;48.770;11.440;2023-06-14T04:59:53;4.43;;;3.20;;
78072;SDS011;67281;48.770;11.440;2023-06-14T05:02:22;4.47;;;3.33;;
78072;SDS011;67281;48.770;11.440;2023-06-14T05:04:50;3.30;;;3.00;;
78072;SDS011;67281;48.770;11.440;2023-06-14T05:07:17;5.23;;;3.83;;
78072;SDS011;67281;48.770;11.440;2023-06-14T05:09:47;4.53;;;3.57;;
78072;SDS011;67281;48.770;11.440;2023-06-14T05:12:14;4.47;;;3.60;;
78072;SDS011;67281;48.770;11.440;2023-06-14T05:14:45;5.13;;;3.70;;
78072;SDS011;67281;48.770;11.440;2023-06-14T05:17:12;4.23;;;3.83;;
78072;SDS011;67281;48.770;11.440;2023-06-14T05:19:39;10.90;;;4.43;;
78072;SDS011;67281;48.770;11.440;2023-06-14T05:22:08;5.03;;;4.53;;
78072;SDS011;67281;48.770;11.440;2023-06-14T05:24:35;5.97;;;3.97;;
78072;SDS011;67281;48.770;11.440;2023-06-14T05:27:02;8.00;;;4.60;;
78072;SDS011;67281;48.770;11.440;2023-06-14T05:29:29;6.60;;;4.70;;
78072;SDS011;67281;48.770;11.440;2023-06-14T05:32:14;5.87;;;4.23;;
78072;SDS011;67281;48.770;11.440;2023-06-14T05:35:00;5.87;;;3.83;;
78072;SDS011;67281;48.770;11.440;2023-06-14T05:37:27;4.77;;;3.73;;
78072;SDS011;67281;48.770;11.440;2023-06-14T05:39:54;7.17;;;3.90;;
78072;SDS011;67281;48.770;11.440;2023-06-14T05:42:40;3.80;;;3.50;;
78072;SDS011;67281;48.770;11.440;2023-06-14T05:45:25;6.40;;;3.50;;
78072;SDS011;67281;48.770;11.440;2023-06-14T05:47:52;3.87;;;3.43;;
78072;SDS011;67281;48.770;11.440;2023-06-14T05:50:21;6.13;;;3.60;;
78072;SDS011;67281;48.770;11.440;2023-06-14T05:52:47;20.17;;;6.43;;
78072;SDS011;67281;48.770;11.440;2023-06-14T05:55:15;7.50;;;4.47;;
78072;SDS011;67281;48.770;11.440;2023-06-14T05:57:43;5.90;;;3.80;;
78072;SDS011;67281;48.770;11.440;2023-06-14T06:00:10;4.10;;;3.60;;
78072;SDS011;67281;48.770;11.440;2023-06-14T06:02:38;6.07;;;4.27;;
78072;SDS011;67281;48.770;11.440;2023-06-14T06:05:05;5.87;;;3.73;;
78072;SDS011;67281;48.770;11.440;2023-06-14T06:07:32;11.33;;;5.23;;
78072;SDS011;67281;48.770;11.440;2023-06-14T06:10:03;6.07;;;4.20;;
78072;SDS011;67281;48.770;11.440;2023-06-14T06:12:31;4.73;;;3.40;;
78072;SDS011;67281;48.770;11.440;2023-06-14T06:14:59;5.07;;;3.87;;
78072;SDS011;67281;48.770;11.440;2023-06-14T06:17:26;4.27;;;3.70;;
78072;SDS011;67281;48.770;11.440;2023-06-14T06:20:07;4.37;;;3.47;;
78072;SDS011;67281;48.770;11.440;2023-06-14T06:22:36;8.50;;;3.47;;
78072;SDS011;67281;48.770;11.440;2023-06-14T06:25:03;6.67;;;3.47;;
78072;SDS011;67281;48.770;11.440;2023-06-14T06:27:30;5.17;;;3.43;;
78072;SDS011;67281;48.770;11.440;2023-06-14T06:29:57;12.17;;;3.63;;
78072;SDS011;67281;48.770;11.440;2023-06-14T06:32:24;7.20;;;2.87;;
78072;SDS011;67281;48.770;11.440;2023-06-14T06:34:51;6.40;;;3.53;;
78072;SDS011;67281;48.770;11.440;2023-06-14T06:37:19;5.60;;;3.70;;
78072;SDS011;67281;48.770;11.440;2023-06-14T06:39:46;5.20;;;3.60;;
78072;SDS011;67281;48.770;11.440;2023-06-14T06:42:14;8.90;;;3.70;;
78072;SDS011;67281;48.770;11.440;2023-06-14T06:44:41;3.73;;;3.23;;
78072;SDS011;67281;48.770;11.440;2023-06-14T06:47:08;4.70;;;3.43;;
78072;SDS011;67281;48.770;11.440;2023-06-14T06:49:36;3.37;;;3.07;;
78072;SDS011;67281;48.770;11.440;2023-06-14T06:52:04;5.27;;;3.23;;
78072;SDS011;67281;48.770;11.440;2023-06-14T06:54:32;7.93;;;3.33;;
78072;SDS011;67281;48.770;11.440;2023-06-14T06:57:00;3.40;;;3.10;;
78072;SDS011;67281;48.770;11.440;2023-06-14T06:59:28;8.70;;;3.60;;
78072;SDS011;67281;48.770;11.440;2023-06-14T07:01:55;6.60;;;3.00;;
78072;SDS011;67281;48.770;11.440;2023-06-14T07:04:22;3.40;;;2.90;;
78072;SDS011;67281;48.770;11.440;2023-06-14T07:06:49;3.70;;;3.03;;
78072;SDS011;67281;48.770;11.440;2023-06-14T07:09:15;5.17;;;2.83;;
78072;SDS011;67281;48.770;11.440;2023-06-14T07:11:43;3.87;;;3.00;;
78072;SDS011;67281;48.770;11.440;2023-06-14T07:14:11;4.27;;;3.30;;
78072;SDS011;67281;48.770;11.440;2023-06-14T07:16:38;3.83;;;3.20;;
78072;SDS011;67281;48.770;11.440;2023-06-14T07:19:05;3.20;;;2.90;;
78072;SDS011;67281;48.770;11.440;2023-06-14T07:21:32;3.20;;;2.90;;
78072;SDS011;67281;48.770;11.440;2023-06-14T07:23:59;3.27;;;2.87;;
78072;SDS011;67281;48.770;11.440;2023-06-14T07:26:27;3.90;;;3.00;;
78072;SDS011;67281;48.770;11.440;2023-06-14T07:28:53;8.50;;;3.10;;
78072;SDS011;67281;48.770;11.440;2023-06-14T07:31:20;3.90;;;3.10;;
78072;SDS011;67281;48.770;11.440;2023-06-14T07:33:48;6.03;;;3.00;;
78072;SDS011;67281;48.770;11.440;2023-06-14T07:36:15;3.47;;;3.00;;
78072;SDS011;67281;48.770;11.440;2023-06-14T07:38:42;5.87;;;3.30;;
78072;SDS011;67281;48.770;11.440;2023-06-14T07:41:08;4.20;;;3.10;;
78072;SDS011;67281;48.770;11.440;2023-06-14T07:43:35;3.70;;;3.20;;
78072;SDS011;67281;48.770;11.440;2023-06-14T07:46:02;4.33;;;3.20;;
78072;SDS011;67281;48.770;11.440;2023-06-14T07:48:33;6.30;;;3.33;;
78072;SDS011;67281;48.770;11.440;2023-06-14T07:51:01;4.33;;;2.93;;
78072;SDS011;67281;48.770;11.440;2023-06-14T07:53:28;5.17;;;3.67;;
78072;SDS011;67281;48.770;11.440;2023-06-14T07:55:55;5.03;;;3.40;;
78072;SDS011;67281;48.770;11.440;2023-06-14T07:58:22;8.60;;;3.70;;
78072;SDS011;67281;48.770;11.440;2023-06-14T08:00:49;5.83;;;3.10;;
78072;SDS011;67281;48.770;11.440;2023-06-14T08:03:16;3.80;;;3.23;;
78072;SDS011;67281;48.770;11.440;2023-06-14T08:05:45;5.10;;;3.23;;
78072;SDS011;67281;48.770;11.440;2023-06-14T08:08:12;5.50;;;3.53;;
78072;SDS011;67281;48.770;11.440;2023-06-14T08:10:39;4.27;;;3.33;;
78072;SDS011;67281;48.770;11.440;2023-06-14T08:13:06;6.80;;;3.83;;
78072;SDS011;67281;48.770;11.440;2023-06-14T08:15:33;6.83;;;3.40;;
78072;SDS011;67281;48.770;11.440;2023-06-14T08:18:00;8.53;;;3.40;;
78072;SDS011;67281;48.770;11.440;2023-06-14T08:20:27;4.27;;;3.13;;
78072;SDS011;67281;48.770;11.440;2023-06-14T08:22:56;5.60;;;3.30;;
78072;SDS011;67281;48.770;11.440;2023-06-14T08:25:24;4.37;;;3.33;;
78072;SDS011;67281;48.770;11.440;2023-06-14T08:27:51;12.43;;;3.40;;
78072;SDS011;67281;48.770;11.440;2023-06-14T08:30:18;6.23;;;3.37;;
78072;SDS011;67281;48.770;11.440;2023-06-14T08:32:45;9.80;;;3.50;;
78072;SDS011;67281;48.770;11.440;2023-06-14T08:35:16;5.47;;;3.40;;
78072;SDS011;67281;48.770;11.440;2023-06-14T08:37:44;6.83;;;3.67;;
78072;SDS011;67281;48.770;11.440;2023-06-14T08:40:21;6.77;;;4.00;;
78072;SDS011;67281;48.770;11.440;2023-06-14T08:42:50;4.77;;;3.40;;
78072;SDS011;67281;48.770;11.440;2023-06-14T08:45:19;6.63;;;3.57;;
78072;SDS011;67281;48.770;11.440;2023-06-14T08:47:53;7.13;;;3.87;;
78072;SDS011;67281;48.770;11.440;2023-06-14T08:50:25;4.83;;;3.53;;
78072;SDS011;67281;48.770;11.440;2023-06-14T08:52:58;6.43;;;3.70;;
78072;SDS011;67281;48.770;11.440;2023-06-14T08:55:30;13.87;;;3.63;;
78072;SDS011;67281;48.770;11.440;2023-06-14T08:58:02;5.83;;;3.43;;
78072;SDS011;67281;48.770;11.440;2023-06-14T09:00:30;5.67;;;3.20;;
78072;SDS011;67281;48.770;11.440;2023-06-14T09:02:57;9.10;;;3.47;;
78072;SDS011;67281;48.770;11.440;2023-06-14T09:05:25;4.13;;;3.20;;
78072;SDS011;67281;48.770;11.440;2023-06-14T09:07:53;9.07;;;2.90;;
78072;SDS011;67281;48.770;11.440;2023-06-14T09:10:23;6.37;;;2.73;;
78072;SDS011;67281;48.770;11.440;2023-06-14T09:12:53;3.87;;;2.97;;
78072;SDS011;67281;48.770;11.440;2023-06-14T09:15:21;5.90;;;3.27;;
78072;SDS011;67281;48.770;11.440;2023-06-14T09:17:48;5.40;;;3.70;;
78072;SDS011;67281;48.770;11.440;2023-06-14T09:20:15;7.47;;;3.17;;
78072;SDS011;67281;48.770;11.440;2023-06-14T09:22:46;6.20;;;3.10;;
78072;SDS011;67281;48.770;11.440;2023-06-14T09:25:13;4.67;;;3.20;;
78072;SDS011;67281;48.770;11.440;2023-06-14T09:28:02;4.40;;;3.23;;
78072;SDS011;67281;48.770;11.440;2023-06-14T09:30:29;6.93;;;3.40;;
78072;SDS011;67281;48.770;11.440;2023-06-14T09:32:55;7.77;;;3.03;;
78072;SDS011;67281;48.770;11.440;2023-06-14T09:35:27;4.93;;;2.70;;
78072;SDS011;67281;48.770;11.440;2023-06-14T09:37:56;3.57;;;2.40;;
78072;SDS011;67281;48.770;11.440;2023-06-14T09:40:23;3.57;;;2.57;;
78072;SDS011;67281;48.770;11.440;2023-06-14T09:42:50;4.77;;;2.80;;
78072;SDS011;67281;48.770;11.440;2023-06-14T09:45:18;5.27;;;3.13;;
78072;SDS011;67281;48.770;11.440;2023-06-14T09:47:48;4.33;;;2.93;;
78072;SDS011;67281;48.770;11.440;2023-06-14T09:50:31;3.30;;;2.57;;
78072;SDS011;67281;48.770;11.440;2023-06-14T09:53:00;3.87;;;2.83;;
78072;SDS011;67281;48.770;11.440;2023-06-14T09:55:33;5.67;;;3.00;;
78072;SDS011;67281;48.770;11.440;2023-06-14T09:58:04;5.27;;;2.80;;
78072;SDS011;67281;48.770;11.440;2023-06-14T10:00:34;5.90;;;2.70;;
78072;SDS011;67281;48.770;11.440;2023-06-14T10:03:44;3.73;;;2.97;;
78072;SDS011;67281;48.770;11.440;2023-06-14T10:06:06;4.90;;;2.93;;
78072;SDS011;67281;48.770;11.440;2023-06-14T10:08:35;4.83;;;2.80;;
78072;SDS011;67281;48.770;11.440;2023-06-14T10:11:04;6.23;;;2.77;;
78072;SDS011;67281;48.770;11.440;2023-06-14T10:13:31;8.07;;;3.30;;
78072;SDS011;67281;48.770;11.440;2023-06-14T10:16:04;4.23;;;2.50;;
78072;SDS011;67281;48.770;11.440;2023-06-14T10:18:45;5.33;;;2.50;;
78072;SDS011;67281;48.770;11.440;2023-06-14T10:21:27;6.33;;;2.57;;
78072;SDS011;67281;48.770;11.440;2023-06-14T10:24:01;3.80;;;2.90;;
78072;SDS011;67281;48.770;11.440;2023-06-14T10:26:32;2.97;;;2.60;;
78072;SDS011;67281;48.770;11.440;2023-06-14T10:29:00;5.27;;;2.53;;
78072;SDS011;67281;48.770;11.440;2023-06-14T10:31:40;2.70;;;2.27;;
78072;SDS011;67281;48.770;11.440;2023-06-14T10:34:09;2.70;;;2.37;;
78072;SDS011;67281;48.770;11.440;2023-06-14T10:36:40;3.50;;;2.57;;
78072;SDS011;67281;48.770;11.440;2023-06-14T10:39:18;6.37;;;3.27;;
78072;SDS011;67281;48.770;11.440;2023-06-14T10:41:52;3.37;;;2.70;;
78072;SDS011;67281;48.770;11.440;2023-06-14T10:46:49;3.43;;;2.63;;
78072;SDS011;67281;48.770;11.440;2023-06-14T10:49:19;3.93;;;2.70;;
78072;SDS011;67281;48.770;11.440;2023-06-14T10:51:49;3.93;;;3.00;;
78072;SDS011;67281;48.770;11.440;2023-06-14T10:54:17;4.37;;;3.07;;
78072;SDS011;67281;48.770;11.440;2023-06-14T10:56:51;4.03;;;2.80;;
78072;SDS011;67281;48.770;11.440;2023-06-14T10:59:19;6.57;;;2.80;;
78072;SDS011;67281;48.770;11.440;2023-06-14T11:04:47;3.37;;;2.50;;
78072;SDS011;67281;48.770;11.440;2023-06-14T11:07:24;7.77;;;3.00;;
78072;SDS011;67281;48.770;11.440;2023-06-14T11:12:39;4.10;;;2.70;;
78072;SDS011;67281;48.770;11.440;2023-06-14T11:15:06;4.07;;;2.40;;
78072;SDS011;67281;48.770;11.440;2023-06-14T11:17:34;3.80;;;2.80;;
78072;SDS011;67281;48.770;11.440;2023-06-14T11:20:09;4.37;;;2.67;;
78072;SDS011;67281;48.770;11.440;2023-06-14T11:22:39;7.23;;;2.80;;
78072;SDS011;67281;48.770;11.440;2023-06-14T11:25:09;8.20;;;2.93;;
78072;SDS011;67281;48.770;11.440;2023-06-14T11:27:36;4.33;;;2.60;;
78072;SDS011;67281;48.770;11.440;2023-06-14T11:30:06;7.27;;;2.97;;
78072;SDS011;67281;48.770;11.440;2023-06-14T11:32:34;5.10;;;2.67;;
78072;SDS011;67281;48.770;11.440;2023-06-14T11:35:01;3.27;;;2.73;;
78072;SDS011;67281;48.770;11.440;2023-06-14T11:37:29;5.33;;;2.70;;
78072;SDS011;67281;48.770;11.440;2023-06-14T11:39:56;3.97;;;2.80;;
78072;SDS011;67281;48.770;11.440;2023-06-14T11:42:24;4.63;;;2.87;;
78072;SDS011;67281;48.770;11.440;2023-06-14T11:44:53;3.57;;;3.17;;
78072;SDS011;67281;48.770;11.440;2023-06-14T11:47:35;3.83;;;2.60;;
78072;SDS011;67281;48.770;11.440;2023-06-14T11:50:02;3.53;;;2.67;;
78072;SDS011;67281;48.770;11.440;2023-06-14T11:52:30;5.13;;;2.90;;
78072;SDS011;67281;48.770;11.440;2023-06-14T11:54:58;4.17;;;3.20;;
78072;SDS011;67281;48.770;11.440;2023-06-14T11:57:25;3.20;;;2.77;;
78072;SDS011;67281;48.770;11.440;2023-06-14T11:59:52;4.50;;;3.10;;
78072;SDS011;67281;48.770;11.440;2023-06-14T12:02:21;6.27;;;2.97;;
78072;SDS011;67281;48.770;11.440;2023-06-14T12:04:50;3.30;;;2.43;;
78072;SDS011;67281;48.770;11.440;2023-06-14T12:07:17;5.87;;;2.90;;
78072;SDS011;67281;48.770;11.440;2023-06-14T12:12:25;4.83;;;3.03;;
78072;SDS011;67281;48.770;11.440;2023-06-14T12:14:53;5.23;;;3.20;;
78072;SDS011;67281;48.770;11.440;2023-06-14T12:17:21;3.60;;;2.70;;
78072;SDS011;67281;48.770;11.440;2023-06-14T12:19:49;7.57;;;3.20;;
78072;SDS011;67281;48.770;11.440;2023-06-14T12:22:16;5.80;;;3.13;;
78072;SDS011;67281;48.770;11.440;2023-06-14T12:24:43;4.50;;;3.07;;
78072;SDS011;67281;48.770;11.440;2023-06-14T12:27:10;4.60;;;2.97;;
78072;SDS011;67281;48.770;11.440;2023-06-14T12:29:42;4.77;;;2.60;;
78072;SDS011;67281;48.770;11.440;2023-06-14T12:32:12;4.40;;;2.97;;
78072;SDS011;67281;48.770;11.440;2023-06-14T12:34:39;9.43;;;4.03;;
78072;SDS011;67281;48.770;11.440;2023-06-14T12:37:06;7.43;;;2.90;;
78072;SDS011;67281;48.770;11.440;2023-06-14T12:39:33;3.07;;;2.60;;
78072;SDS011;67281;48.770;11.440;2023-06-14T12:42:00;6.07;;;2.70;;
78072;SDS011;67281;48.770;11.440;2023-06-14T12:44:27;5.63;;;2.87;;
78072;SDS011;67281;48.770;11.440;2023-06-14T12:46:54;4.47;;;3.07;;
78072;SDS011;67281;48.770;11.440;2023-06-14T12:49:21;4.57;;;2.80;;
78072;SDS011;67281;48.770;11.440;2023-06-14T12:51:48;4.27;;;3.17;;
78072;SDS011;67281;48.770;11.440;2023-06-14T12:54:15;5.87;;;2.97;;
78072;SDS011;67281;48.770;11.440;2023-06-14T12:56:53;4.33;;;2.60;;
78072;SDS011;67281;48.770;11.440;2023-06-14T12:59:21;3.97;;;3.00;;
78072;SDS011;67281;48.770;11.440;2023-06-14T13:01:48;5.83;;;3.00;;
78072;SDS011;67281;48.770;11.440;2023-06-14T13:04:17;3.83;;;2.90;;
78072;SDS011;67281;48.770;11.440;2023-06-14T13:06:44;5.47;;;2.87;;
78072;SDS011;67281;48.770;11.440;2023-06-14T13:09:11;5.10;;;3.00;;
78072;SDS011;67281;48.770;11.440;2023-06-14T13:11:42;4.97;;;3.10;;
78072;SDS011;67281;48.770;11.440;2023-06-14T13:14:12;6.73;;;2.73;;
78072;SDS011;67281;48.770;11.440;2023-06-14T13:16:50;3.70;;;3.03;;
78072;SDS011;67281;48.770;11.440;2023-06-14T13:19:18;4.90;;;2.90;;
78072;SDS011;67281;48.770;11.440;2023-06-14T13:21:45;4.23;;;2.80;;
78072;SDS011;67281;48.770;11.440;2023-06-14T13:24:12;5.67;;;2.90;;
78072;SDS011;67281;48.770;11.440;2023-06-14T13:26:39;4.67;;;2.90;;
78072;SDS011;67281;48.770;11.440;2023-06-14T13:29:06;3.63;;;3.23;;
78072;SDS011;67281;48.770;11.440;2023-06-14T13:31:33;4.80;;;2.70;;
78072;SDS011;67281;48.770;11.440;2023-06-14T13:34:00;3.93;;;2.90;;
78072;SDS011;67281;48.770;11.440;2023-06-14T13:36:27;5.47;;;2.63;;
78072;SDS011;67281;48.770;11.440;2023-06-14T13:38:54;3.60;;;2.97;;
78072;SDS011;67281;48.770;11.440;2023-06-14T13:41:21;3.07;;;2.73;;
78072;SDS011;67281;48.770;11.440;2023-06-14T13:43:48;3.83;;;2.67;;
78072;SDS011;67281;48.770;11.440;2023-06-14T13:46:15;4.17;;;2.80;;
78072;SDS011;67281;48.770;11.440;2023-06-14T13:48:42;9.27;;;3.43;;
78072;SDS011;67281;48.770;11.440;2023-06-14T13:51:10;6.20;;;3.17;;
78072;SDS011;67281;48.770;11.440;2023-06-14T13:53:37;8.05;;;3.28;;
78072;SDS011;67281;48.770;11.440;2023-06-14T13:56:04;5.43;;;2.92;;
78072;SDS011;67281;48.770;11.440;2023-06-14T13:58:31;8.13;;;3.30;;
78072;SDS011;67281;48.770;11.440;2023-06-14T14:00:58;5.70;;;3.47;;
78072;SDS011;67281;48.770;11.440;2023-06-14T14:03:26;6.03;;;3.38;;
78072;SDS011;67281;48.770;11.440;2023-06-14T14:05:53;6.63;;;3.20;;
78072;SDS011;67281;48.770;11.440;2023-06-14T14:08:19;4.05;;;2.90;;
78072;SDS011;67281;48.770;11.440;2023-06-14T14:10:46;6.13;;;3.03;;
78072;SDS011;67281;48.770;11.440;2023-06-14T14:13:14;5.30;;;3.07;;
78072;SDS011;67281;48.770;11.440;2023-06-14T14:15:41;4.13;;;2.83;;
78072;SDS011;67281;48.770;11.440;2023-06-14T14:18:08;3.50;;;3.13;;
78072;SDS011;67281;48.770;11.440;2023-06-14T14:20:35;4.63;;;2.90;;
78072;SDS011;67281;48.770;11.440;2023-06-14T14:23:02;3.63;;;3.03;;
78072;SDS011;67281;48.770;11.440;2023-06-14T14:25:29;5.43;;;2.53;;
78072;SDS011;67281;48.770;11.440;2023-06-14T14:27:55;5.60;;;3.33;;
78072;SDS011;67281;48.770;11.440;2023-06-14T14:30:22;2.95;;;2.65;;
78072;SDS011;67281;48.770;11.440;2023-06-14T14:32:50;6.30;;;2.90;;
78072;SDS011;67281;48.770;11.440;2023-06-14T14:35:18;6.75;;;3.10;;
78072;SDS011;67281;48.770;11.440;2023-06-14T14:37:45;4.20;;;3.00;;
78072;SDS011;67281;48.770;11.440;2023-06-14T14:40:12;4.63;;;2.90;;
78072;SDS011;67281;48.770;11.440;2023-06-14T14:42:40;4.00;;;3.10;;
78072;SDS011;67281;48.770;11.440;2023-06-14T14:45:07;5.95;;;3.25;;
78072;SDS011;67281;48.770;11.440;2023-06-14T14:47:34;5.45;;;2.80;;
78072;SDS011;67281;48.770;11.440;2023-06-14T14:50:01;3.97;;;3.03;;
78072;SDS011;67281;48.770;11.440;2023-06-14T14:52:28;4.22;;;2.85;;
78072;SDS011;67281;48.770;11.440;2023-06-14T14:54:55;3.55;;;2.40;;